createdAt,value
2018-09-26T00:00:32.194Z,68.77
2018-09-26T00:01:12.746Z,68.68
2018-09-26T00:01:53.305Z,68.68
2018-09-26T00:02:33.899Z,68.4
2018-09-26T00:03:14.510Z,68.49
2018-09-26T00:03:55.041Z,68.59
2018-09-26T00:04:35.624Z,68.49
2018-09-26T00:05:16.190Z,68.77
2018-09-26T00:05:56.745Z,68.87
2018-09-26T00:06:37.320Z,68.77
2018-09-26T00:07:17.912Z,68.77
2018-09-26T00:07:58.469Z,68.3
2018-09-26T00:08:39.042Z,68.59
2018-09-26T00:09:19.684Z,68.49
2018-09-26T00:10:00.198Z,68.68
2018-09-26T00:10:40.791Z,68.77
2018-09-26T00:11:21.343Z,68.59
2018-09-26T00:12:01.914Z,68.59
2018-09-26T00:12:42.462Z,68.49
2018-09-26T00:13:23.017Z,68.59
2018-09-26T00:14:03.585Z,68.59
2018-09-26T00:14:44.159Z,68.4
2018-09-26T00:15:24.718Z,68.68
2018-09-26T00:16:05.303Z,68.68
2018-09-26T00:16:45.874Z,68.4
2018-09-26T00:17:26.423Z,68.68
2018-09-26T00:18:06.970Z,68.68
2018-09-26T00:18:47.577Z,68.77
2018-09-26T00:19:28.126Z,68.49
2018-09-26T00:20:08.677Z,68.59
2018-09-26T00:20:49.239Z,68.59
2018-09-26T00:21:29.862Z,68.4
2018-09-26T00:22:10.458Z,68.49
2018-09-26T00:22:51.026Z,68.87
2018-09-26T00:23:31.605Z,69.06
2018-09-26T00:24:12.177Z,69.35
2018-09-26T00:24:52.752Z,69.25
2018-09-26T00:25:33.307Z,69.15
2018-09-26T00:26:14.040Z,69.35
2018-09-26T00:26:54.650Z,69.06
2018-09-26T00:27:35.223Z,69.15
2018-09-26T00:28:15.781Z,68.96
2018-09-26T00:28:56.349Z,68.96
2018-09-26T00:29:36.933Z,69.06
2018-09-26T00:30:17.491Z,69.44
2018-09-26T00:30:58.042Z,69.35
2018-09-26T00:31:38.613Z,68.74
2018-09-26T00:32:19.156Z,68.68
2018-09-26T00:32:59.740Z,69.25
2018-09-26T00:33:40.319Z,69.44
2018-09-26T00:34:20.870Z,69.25
2018-09-26T00:35:01.435Z,69.25
2018-09-26T00:35:42.024Z,69.15
2018-09-26T00:36:22.573Z,69.31
2018-09-26T00:37:03.138Z,69.54
2018-09-26T00:37:43.704Z,69.35
2018-09-26T00:38:24.276Z,69.73
2018-09-26T00:39:04.849Z,69.54
2018-09-26T00:39:45.398Z,69.73
2018-09-26T00:40:25.961Z,69.35
2018-09-26T00:41:06.530Z,70.01
2018-09-26T00:41:47.110Z,70.01
2018-09-26T00:42:27.668Z,69.63
2018-09-26T00:43:08.195Z,69.15
2018-09-26T00:43:48.764Z,69.15
2018-09-26T00:44:29.338Z,69.06
2018-09-26T00:45:09.897Z,69.6
2018-09-26T00:45:50.458Z,69.41
2018-09-26T00:46:31.055Z,69.63
2018-09-26T00:47:11.608Z,69.5
2018-09-26T00:47:52.165Z,69.21
2018-09-26T00:48:32.710Z,69.12
2018-09-26T00:49:13.268Z,69.15
2018-09-26T00:49:53.826Z,69.25
2018-09-26T00:50:34.396Z,69.06
2018-09-26T00:51:14.971Z,69.63
2018-09-26T00:51:55.534Z,69.54
2018-09-26T00:52:36.110Z,69.06
2018-09-26T00:53:16.676Z,69.31
2018-09-26T00:53:57.254Z,69.44
2018-09-26T00:54:37.815Z,69.31
2018-09-26T00:55:18.380Z,69.31
2018-09-26T00:55:58.938Z,69.12
2018-09-26T00:56:39.508Z,69.12
2018-09-26T00:57:20.115Z,69.41
2018-09-26T00:58:00.669Z,69.44
2018-09-26T00:58:41.222Z,69.41
2018-09-26T00:59:21.789Z,69.02
2018-09-26T01:00:02.363Z,69.21
2018-09-26T01:00:42.925Z,69.5
2018-09-26T01:01:23.478Z,69.41
2018-09-26T01:02:04.049Z,69.69
2018-09-26T01:02:44.637Z,69.63
2018-09-26T01:03:25.197Z,69.21
2018-09-26T01:04:05.747Z,69.31
2018-09-26T01:04:46.293Z,69.06
2018-09-26T01:05:26.862Z,69.12
2018-09-26T01:06:07.425Z,69.41
2018-09-26T01:06:47.977Z,69.25
2018-09-26T01:07:28.546Z,68.84
2018-09-26T01:08:09.105Z,69.41
2018-09-26T01:08:49.673Z,69.12
2018-09-26T01:09:30.246Z,69.15
2018-09-26T01:10:10.803Z,69.15
2018-09-26T01:10:51.360Z,69.06
2018-09-26T01:11:31.917Z,69.35
2018-09-26T01:12:12.469Z,69.25
2018-09-26T01:12:53.023Z,69.21
2018-09-26T01:13:33.580Z,69.21
2018-09-26T01:14:14.154Z,69.21
2018-09-26T01:14:54.757Z,68.84
2018-09-26T01:15:35.313Z,68.55
2018-09-26T01:16:15.875Z,69.21
2018-09-26T01:16:56.419Z,69.02
2018-09-26T01:17:36.991Z,69.41
2018-09-26T01:18:17.572Z,69.31
2018-09-26T01:18:58.151Z,69.31
2018-09-26T01:19:38.713Z,69.21
2018-09-26T01:20:19.310Z,69.21
2018-09-26T01:20:59.900Z,69.31
2018-09-26T01:21:40.409Z,69.79
2018-09-26T01:22:20.977Z,69.31
2018-09-26T01:23:01.569Z,69.21
2018-09-26T01:23:42.125Z,69.12
2018-09-26T01:24:22.678Z,69.5
2018-09-26T01:25:03.235Z,69.6
2018-09-26T01:25:43.790Z,69.5
2018-09-26T01:26:24.335Z,69.79
2018-09-26T01:27:04.884Z,69.21
2018-09-26T01:27:45.476Z,69.02
2018-09-26T01:28:26.033Z,69.31
2018-09-26T01:29:06.603Z,69.5
2018-09-26T01:29:47.180Z,69.5
2018-09-26T01:30:27.744Z,69.02
2018-09-26T01:31:08.325Z,69.02
2018-09-26T01:31:48.881Z,68.74
2018-09-26T01:32:29.463Z,69.02
2018-09-26T01:33:10.049Z,69.21
2018-09-26T01:33:50.607Z,69.79
2018-09-26T01:34:31.153Z,69.6
2018-09-26T01:35:11.719Z,69.6
2018-09-26T01:35:52.290Z,69.12
2018-09-26T01:36:32.860Z,69.12
2018-09-26T01:37:13.400Z,69.02
2018-09-26T01:37:53.955Z,68.93
2018-09-26T01:38:34.540Z,69.12
2018-09-26T01:39:15.113Z,68.84
2018-09-26T01:39:55.689Z,69.12
2018-09-26T01:40:36.254Z,69.12
2018-09-26T01:41:16.892Z,68.84
2018-09-26T01:41:57.440Z,69.02
2018-09-26T01:42:38.003Z,68.65
2018-09-26T01:43:18.542Z,69.31
2018-09-26T01:43:59.095Z,68.84
2018-09-26T01:44:39.705Z,68.84
2018-09-26T01:45:20.262Z,69.31
2018-09-26T01:46:00.820Z,68.55
2018-09-26T01:46:41.373Z,68.84
2018-09-26T01:47:21.929Z,68.46
2018-09-26T01:48:02.496Z,68.65
2018-09-26T01:48:43.033Z,68.17
2018-09-26T01:49:23.601Z,67.88
2018-09-26T01:50:04.188Z,67.79
2018-09-26T01:50:44.772Z,67.98
2018-09-26T01:51:25.320Z,67.98
2018-09-26T01:52:05.896Z,67.98
2018-09-26T01:52:46.456Z,68.17
2018-09-26T01:53:27.033Z,67.79
2018-09-26T01:54:07.594Z,67.98
2018-09-26T01:54:48.157Z,67.79
2018-09-26T01:55:28.797Z,67.98
2018-09-26T01:56:09.374Z,68.17
2018-09-26T01:56:49.931Z,67.98
2018-09-26T01:57:30.490Z,68.27
2018-09-26T01:58:13.969Z,67.79
2018-09-26T01:59:00.000Z,67.79
2018-09-26T01:59:42.401Z,67.88
2018-09-26T02:00:26.493Z,68.36
2018-09-26T02:01:10.006Z,68.07
2018-09-26T02:01:52.447Z,68.27
2018-09-26T02:02:35.426Z,67.79
2018-09-26T02:03:18.975Z,68.17
2018-09-26T02:04:02.002Z,67.98
2018-09-26T02:04:45.882Z,68.46
2018-09-26T02:05:28.478Z,67.79
2018-09-26T02:06:10.470Z,67.79
2018-09-26T02:06:54.918Z,67.98
2018-09-26T02:07:38.499Z,68.27
2018-09-26T02:08:25.493Z,67.88
2018-09-26T02:09:10.420Z,68.07
2018-09-26T02:09:53.437Z,67.88
2018-09-26T02:10:37.407Z,67.98
2018-09-26T02:11:21.913Z,67.6
2018-09-26T02:12:05.013Z,67.32
2018-09-26T02:12:49.480Z,67.6
2018-09-26T02:13:35.941Z,67.41
2018-09-26T02:14:19.452Z,67.79
2018-09-26T02:15:02.619Z,67.5
2018-09-26T02:15:48.958Z,67.32
2018-09-26T02:16:29.992Z,67.5
2018-09-26T02:17:13.924Z,67.69
2018-09-26T02:17:55.662Z,67.6
2018-09-26T02:18:41.487Z,67.79
2018-09-26T02:19:23.917Z,67.5
2018-09-26T02:20:04.071Z,67.98
2018-09-26T02:20:45.181Z,68.17
2018-09-26T02:21:26.370Z,67.98
2018-09-26T02:22:07.788Z,67.98
2018-09-26T02:22:48.802Z,68.27
2018-09-26T02:23:29.555Z,68.17
2018-09-26T02:24:10.062Z,67.88
2018-09-26T02:24:50.739Z,67.98
2018-09-26T02:25:31.296Z,68.74
2018-09-26T02:26:11.870Z,68.17
2018-09-26T02:26:52.425Z,68.65
2018-09-26T02:27:33.008Z,68.74
2018-09-26T02:28:13.554Z,68.65
2018-09-26T02:28:54.154Z,68.84
2018-09-26T02:29:34.707Z,68.65
2018-09-26T02:30:15.277Z,68.74
2018-09-26T02:30:55.832Z,68.65
2018-09-26T02:31:36.381Z,68.65
2018-09-26T02:32:16.960Z,68.65
2018-09-26T02:32:57.555Z,68.65
2018-09-26T02:33:38.126Z,68.46
2018-09-26T02:34:18.731Z,68.46
2018-09-26T02:34:59.268Z,68.46
2018-09-26T02:35:39.841Z,68.65
2018-09-26T02:36:20.412Z,68.65
2018-09-26T02:37:00.978Z,68.36
2018-09-26T02:37:41.553Z,68.46
2018-09-26T02:38:22.149Z,68.65
2018-09-26T02:39:02.707Z,68.84
2018-09-26T02:39:43.303Z,68.65
2018-09-26T02:40:23.881Z,68.46
2018-09-26T02:41:04.446Z,68.17
2018-09-26T02:41:45.026Z,68.36
2018-09-26T02:42:25.583Z,68.84
2018-09-26T02:43:06.165Z,68.84
2018-09-26T02:43:46.717Z,69.31
2018-09-26T02:44:27.281Z,68.65
2018-09-26T02:45:07.847Z,69.12
2018-09-26T02:45:48.413Z,69.02
2018-09-26T02:46:28.961Z,69.31
2018-09-26T02:47:09.706Z,69.02
2018-09-26T02:47:50.278Z,69.6
2018-09-26T02:48:30.836Z,69.6
2018-09-26T02:49:11.431Z,69.5
2018-09-26T02:49:51.993Z,69.41
2018-09-26T02:50:32.564Z,69.41
2018-09-26T02:51:13.118Z,69.5
2018-09-26T02:51:53.692Z,69.6
2018-09-26T02:52:34.250Z,69.31
2018-09-26T02:53:14.814Z,69.41
2018-09-26T02:53:55.355Z,69.41
2018-09-26T02:54:35.944Z,69.69
2018-09-26T02:55:16.523Z,69.5
2018-09-26T02:55:57.079Z,69.5
2018-09-26T02:56:37.653Z,69.31
2018-09-26T02:57:18.206Z,69.41
2018-09-26T02:57:58.842Z,69.79
2018-09-26T02:58:39.401Z,69.79
2018-09-26T02:59:19.987Z,69.88
2018-09-26T03:00:00.551Z,69.79
2018-09-26T03:00:41.122Z,69.6
2018-09-26T03:01:21.699Z,69.79
2018-09-26T03:02:02.247Z,69.88
2018-09-26T03:02:42.805Z,69.79
2018-09-26T03:03:23.441Z,70.07
2018-09-26T03:04:04.032Z,70.17
2018-09-26T03:04:44.609Z,69.88
2018-09-26T03:05:25.263Z,69.88
2018-09-26T03:06:05.871Z,69.6
2018-09-26T03:06:46.454Z,69.6
2018-09-26T03:07:27.023Z,69.79
2018-09-26T03:08:07.573Z,69.88
2018-09-26T03:08:48.126Z,69.6
2018-09-26T03:09:28.712Z,69.79
2018-09-26T03:10:09.273Z,69.88
2018-09-26T03:10:49.976Z,70.26
2018-09-26T03:11:30.489Z,70.26
2018-09-26T03:12:11.085Z,70.07
2018-09-26T03:12:51.676Z,70.17
2018-09-26T03:13:32.248Z,70.26
2018-09-26T03:14:12.843Z,69.98
2018-09-26T03:14:53.706Z,69.88
2018-09-26T03:15:34.296Z,69.98
2018-09-26T03:16:14.849Z,70.26
2018-09-26T03:16:55.438Z,69.98
2018-09-26T03:17:36.052Z,69.88
2018-09-26T03:18:16.559Z,69.88
2018-09-26T03:18:57.119Z,69.69
2018-09-26T03:19:37.672Z,69.79
2018-09-26T03:20:18.252Z,69.79
2018-09-26T03:20:58.800Z,69.6
2018-09-26T03:21:39.380Z,69.79
2018-09-26T03:22:19.933Z,69.79
2018-09-26T03:23:00.513Z,69.98
2018-09-26T03:23:41.099Z,69.88
2018-09-26T03:24:21.658Z,69.88
2018-09-26T03:25:02.238Z,70.26
2018-09-26T03:25:42.777Z,70.17
2018-09-26T03:26:23.347Z,70.54
2018-09-26T03:27:03.901Z,70.45
2018-09-26T03:27:44.458Z,70.54
2018-09-26T03:28:25.025Z,70.54
2018-09-26T03:29:05.619Z,70.17
2018-09-26T03:29:46.179Z,70.26
2018-09-26T03:30:26.793Z,70.07
2018-09-26T03:31:07.362Z,70.07
2018-09-26T03:31:47.909Z,69.98
2018-09-26T03:32:28.469Z,70.13
2018-09-26T03:33:09.052Z,69.98
2018-09-26T03:33:49.701Z,70.26
2018-09-26T03:34:30.221Z,70.26
2018-09-26T03:35:10.783Z,70.17
2018-09-26T03:35:51.352Z,70.07
2018-09-26T03:36:31.926Z,69.79
2018-09-26T03:37:12.506Z,70.17
2018-09-26T03:37:53.070Z,69.88
2018-09-26T03:38:33.657Z,70.07
2018-09-26T03:39:14.204Z,70.26
2018-09-26T03:39:54.769Z,69.98
2018-09-26T03:40:35.413Z,70.45
2018-09-26T03:41:15.976Z,70.45
2018-09-26T03:41:56.525Z,70.64
2018-09-26T03:42:37.083Z,70.36
2018-09-26T03:43:17.641Z,70.36
2018-09-26T03:43:58.216Z,70.54
2018-09-26T03:44:38.824Z,70.42
2018-09-26T03:45:19.413Z,70.45
2018-09-26T03:45:59.994Z,70.45
2018-09-26T03:46:40.536Z,70.17
2018-09-26T03:47:21.090Z,70.26
2018-09-26T03:48:01.656Z,70.26
2018-09-26T03:48:42.454Z,70.42
2018-09-26T03:49:22.993Z,70.51
2018-09-26T03:50:03.536Z,70.36
2018-09-26T03:50:44.094Z,70.32
2018-09-26T03:51:24.661Z,70.42
2018-09-26T03:52:05.232Z,70.32
2018-09-26T03:52:45.799Z,70.32
2018-09-26T03:53:26.368Z,70.42
2018-09-26T03:54:06.972Z,70.61
2018-09-26T03:54:47.527Z,70.61
2018-09-26T03:55:28.083Z,70.42
2018-09-26T03:56:08.659Z,70.42
2018-09-26T03:56:49.221Z,70.79
2018-09-26T03:57:29.785Z,70.61
2018-09-26T03:58:10.348Z,70.89
2018-09-26T03:58:50.900Z,70.79
2018-09-26T03:59:31.455Z,70.79
2018-09-26T04:00:12.015Z,70.61
2018-09-26T04:00:52.576Z,70.99
2018-09-26T04:01:33.122Z,70.79
2018-09-26T04:02:13.677Z,70.79
2018-09-26T04:02:54.228Z,70.89
2018-09-26T04:03:34.789Z,71.46
2018-09-26T04:04:15.355Z,71.08
2018-09-26T04:04:56.022Z,71.27
2018-09-26T04:05:36.548Z,71.08
2018-09-26T04:06:17.074Z,70.89
2018-09-26T04:06:57.675Z,70.79
2018-09-26T04:07:38.267Z,72.22
2018-09-26T04:08:18.820Z,75.64
2018-09-26T04:08:59.372Z,79.44
2018-09-26T04:09:39.915Z,81.96
2018-09-26T04:10:20.470Z,82.34
2018-09-26T04:11:01.024Z,82.91
2018-09-26T04:11:41.609Z,83.23
2018-09-26T04:12:22.193Z,82.67
2018-09-26T04:13:02.808Z,81.43
2018-09-26T04:13:43.306Z,80
2018-09-26T04:14:23.870Z,78.48
2018-09-26T04:15:04.437Z,78
2018-09-26T04:15:45.037Z,77.37
2018-09-26T04:16:25.590Z,77.76
2018-09-26T04:17:06.142Z,76.71
2018-09-26T04:17:46.693Z,75.09
2018-09-26T04:18:27.263Z,75.38
2018-09-26T04:19:07.838Z,74.8
2018-09-26T04:19:48.425Z,73.76
2018-09-26T04:20:29.098Z,73.38
2018-09-26T04:21:09.602Z,72.42
2018-09-26T04:21:50.236Z,72.37
2018-09-26T04:22:30.802Z,72.37
2018-09-26T04:23:11.373Z,72.17
2018-09-26T04:23:51.933Z,72.17
2018-09-26T04:24:32.486Z,72.08
2018-09-26T04:25:13.044Z,71.22
2018-09-26T04:25:53.611Z,70.94
2018-09-26T04:26:34.320Z,70.84
2018-09-26T04:27:14.807Z,69.89
2018-09-26T04:27:55.377Z,69.79
2018-09-26T04:28:35.898Z,70.08
2018-09-26T04:29:16.457Z,69.99
2018-09-26T04:29:57.013Z,69.89
2018-09-26T04:30:37.583Z,69.7
2018-09-26T04:31:18.135Z,69.42
2018-09-26T04:31:58.698Z,68.94
2018-09-26T04:32:39.362Z,69.35
2018-09-26T04:33:19.956Z,68.12
2018-09-26T04:34:00.379Z,68.12
2018-09-26T04:34:40.952Z,68.4
2018-09-26T04:35:21.534Z,68.59
2018-09-26T04:36:02.105Z,68.78
2018-09-26T04:36:42.663Z,68.69
2018-09-26T04:37:23.228Z,68.4
2018-09-26T04:38:03.782Z,67.64
2018-09-26T04:38:44.407Z,66.88
2018-09-26T04:39:24.918Z,66.78
2018-09-26T04:40:05.550Z,66.21
2018-09-26T04:40:46.064Z,65.64
2018-09-26T04:41:26.637Z,66.02
2018-09-26T04:42:07.218Z,65.64
2018-09-26T04:42:47.791Z,65.73
2018-09-26T04:43:28.468Z,65.99
2018-09-26T04:44:08.910Z,66.08
2018-09-26T04:44:49.472Z,67.32
2018-09-26T04:45:30.033Z,67.32
2018-09-26T04:46:10.581Z,66.59
2018-09-26T04:46:51.143Z,66.94
2018-09-26T04:47:31.718Z,67.51
2018-09-26T04:48:12.288Z,67.83
2018-09-26T04:48:52.843Z,67.35
2018-09-26T04:49:33.419Z,66.59
2018-09-26T04:50:14.242Z,67.16
2018-09-26T04:50:54.621Z,66.88
2018-09-26T04:51:40.382Z,66.11
2018-09-26T04:52:21.884Z,65.36
2018-09-26T04:53:02.590Z,66.11
2018-09-26T04:53:43.205Z,66.37
2018-09-26T04:54:23.774Z,65.99
2018-09-26T04:55:04.331Z,65.8
2018-09-26T04:55:44.934Z,66.18
2018-09-26T04:56:28.714Z,65.89
2018-09-26T04:57:09.839Z,65.13
2018-09-26T04:57:50.403Z,65.23
2018-09-26T04:58:31.108Z,64.56
2018-09-26T04:59:11.502Z,65.42
2018-09-26T04:59:52.075Z,66.08
2018-09-26T05:00:32.630Z,67.7
2018-09-26T05:01:13.182Z,68.08
2018-09-26T05:01:53.756Z,66.85
2018-09-26T05:02:34.329Z,66.18
2018-09-26T05:03:14.898Z,66.66
2018-09-26T05:03:55.447Z,66.85
2018-09-26T05:04:36.017Z,67.51
2018-09-26T05:05:16.574Z,67.61
2018-09-26T05:05:57.130Z,67.41
2018-09-26T05:06:37.685Z,68.84
2018-09-26T05:07:18.254Z,68.46
2018-09-26T05:07:58.875Z,67.41
2018-09-26T05:08:39.448Z,66.66
2018-09-26T05:09:20.016Z,66.56
2018-09-26T05:10:00.576Z,66.66
2018-09-26T05:10:41.132Z,67.13
2018-09-26T05:11:21.699Z,66.56
2018-09-26T05:12:02.272Z,66.27
2018-09-26T05:12:42.839Z,66.08
2018-09-26T05:13:23.407Z,68.27
2018-09-26T05:14:03.989Z,69.13
2018-09-26T05:14:44.612Z,68.46
2018-09-26T05:15:25.122Z,67.22
2018-09-26T05:16:05.668Z,66.18
2018-09-26T05:16:46.223Z,66.56
2018-09-26T05:17:26.775Z,67.51
2018-09-26T05:18:07.349Z,70.27
2018-09-26T05:18:47.913Z,72.17
2018-09-26T05:19:28.492Z,71.7
2018-09-26T05:20:09.117Z,69.89
2018-09-26T05:20:49.668Z,69.7
2018-09-26T05:21:30.242Z,68.88
2018-09-26T05:22:10.801Z,67.74
2018-09-26T05:22:51.441Z,67.16
2018-09-26T05:23:31.945Z,67.16
2018-09-26T05:24:12.527Z,66.11
2018-09-26T05:24:53.080Z,64.97
2018-09-26T05:25:33.696Z,64.87
2018-09-26T05:26:14.251Z,64.4
2018-09-26T05:26:54.829Z,64.5
2018-09-26T05:27:35.399Z,64.5
2018-09-26T05:28:15.952Z,64.59
2018-09-26T05:28:56.528Z,64.59
2018-09-26T05:29:37.089Z,64.5
2018-09-26T05:30:17.705Z,64.59
2018-09-26T05:30:58.220Z,64.02
2018-09-26T05:31:38.780Z,63.54
2018-09-26T05:32:19.361Z,62.88
2018-09-26T05:32:59.985Z,62.78
2018-09-26T05:33:40.544Z,63.17
2018-09-26T05:34:21.097Z,63.07
2018-09-26T05:35:01.751Z,63.73
2018-09-26T05:35:42.374Z,64.02
2018-09-26T05:36:22.941Z,63.83
2018-09-26T05:37:03.535Z,63.26
2018-09-26T05:37:44.091Z,63.17
2018-09-26T05:38:24.700Z,62.02
2018-09-26T05:39:05.314Z,61.54
2018-09-26T05:39:45.901Z,61.16
2018-09-26T05:40:26.580Z,60.88
2018-09-26T05:41:07.173Z,60.75
2018-09-26T05:41:48.034Z,61.13
2018-09-26T05:42:28.620Z,61.61
2018-09-26T05:43:09.254Z,61.8
2018-09-26T05:43:49.892Z,62.46
2018-09-26T05:44:30.481Z,62.85
2018-09-26T05:45:11.650Z,63.29
2018-09-26T05:45:52.251Z,63.48
2018-09-26T05:46:32.897Z,63.48
2018-09-26T05:47:13.458Z,63.57
2018-09-26T05:47:54.051Z,64.43
2018-09-26T05:48:34.885Z,64.31
2018-09-26T05:49:15.526Z,64.9
2018-09-26T05:49:56.075Z,65.35
2018-09-26T05:50:36.637Z,65.38
2018-09-26T05:51:17.219Z,65.92
2018-09-26T05:51:57.852Z,66.02
2018-09-26T05:52:38.452Z,65.73
2018-09-26T05:53:19.311Z,65.54
2018-09-26T05:53:59.932Z,65.64
2018-09-26T05:54:40.494Z,66.11
2018-09-26T05:55:21.096Z,66.2
2018-09-26T05:56:01.630Z,66.02
2018-09-26T05:56:42.220Z,66.68
2018-09-26T05:57:22.916Z,66.59
2018-09-26T05:58:03.385Z,67.03
2018-09-26T05:58:44.010Z,67.13
2018-09-26T05:59:24.867Z,67.03
2018-09-26T06:00:07.218Z,66.84
2018-09-26T06:00:46.845Z,67.22
2018-09-26T06:01:27.372Z,67.98
2018-09-26T06:02:08.067Z,67.41
2018-09-26T06:02:48.693Z,67.98
2018-09-26T06:03:29.285Z,68.17
2018-09-26T06:04:10.231Z,68.27
2018-09-26T06:04:51.045Z,68.07
2018-09-26T06:05:32.162Z,68.55
2018-09-26T06:06:12.685Z,68.55
2018-09-26T06:06:53.351Z,68.65
2018-09-26T06:07:33.924Z,68.46
2018-09-26T06:08:15.272Z,68.36
2018-09-26T06:08:55.849Z,68.46
2018-09-26T06:09:36.711Z,68.36
2018-09-26T06:10:17.394Z,68.65
2018-09-26T06:10:58.186Z,69.12
2018-09-26T06:11:38.757Z,69.12
2018-09-26T06:12:19.519Z,69.31
2018-09-26T06:13:00.283Z,69.12
2018-09-26T06:13:41.108Z,68.74
2018-09-26T06:14:21.723Z,68.84
2018-09-26T06:15:02.392Z,69.12
2018-09-26T06:15:42.978Z,68.74
2018-09-26T06:16:23.666Z,69.31
2018-09-26T06:17:04.270Z,69.12
2018-09-26T06:17:44.849Z,69.6
2018-09-26T06:18:25.550Z,69.69
2018-09-26T06:19:06.192Z,69.69
2018-09-26T06:19:46.714Z,69.69
2018-09-26T06:20:27.310Z,69.21
2018-09-26T06:21:08.004Z,69.5
2018-09-26T06:21:48.653Z,69.21
2018-09-26T06:22:29.353Z,69.5
2018-09-26T06:23:10.204Z,69.41
2018-09-26T06:23:50.769Z,69.31
2018-09-26T06:24:31.455Z,69.98
2018-09-26T06:25:12.039Z,69.88
2018-09-26T06:25:52.616Z,69.79
2018-09-26T06:26:33.273Z,70.07
2018-09-26T06:27:13.852Z,69.5
2018-09-26T06:27:54.542Z,69.98
2018-09-26T06:28:35.150Z,69.31
2018-09-26T06:29:15.774Z,69.41
2018-09-26T06:29:56.427Z,70.07
2018-09-26T06:30:37.007Z,69.31
2018-09-26T06:31:17.669Z,69.5
2018-09-26T06:31:58.337Z,69.6
2018-09-26T06:32:39.157Z,69.41
2018-09-26T06:33:19.768Z,69.79
2018-09-26T06:34:00.461Z,69.69
2018-09-26T06:34:42.892Z,69.5
2018-09-26T06:35:23.459Z,69.31
2018-09-26T06:36:04.138Z,69.21
2018-09-26T06:36:44.883Z,69.12
2018-09-26T06:37:25.449Z,68.65
2018-09-26T06:38:06.277Z,69.31
2018-09-26T06:38:46.913Z,69.02
2018-09-26T06:39:27.553Z,69.6
2018-09-26T06:40:08.134Z,69.21
2018-09-26T06:40:48.684Z,69.31
2018-09-26T06:41:29.366Z,69.02
2018-09-26T06:42:09.936Z,68.84
2018-09-26T06:42:50.525Z,68.93
2018-09-26T06:43:31.162Z,69.06
2018-09-26T06:44:11.727Z,69.06
2018-09-26T06:44:52.372Z,69.54
2018-09-26T06:45:33.006Z,69.44
2018-09-26T06:46:13.751Z,69.69
2018-09-26T06:46:54.398Z,69.41
2018-09-26T06:47:35.136Z,69.6
2018-09-26T06:48:15.601Z,69.63
2018-09-26T06:48:56.247Z,69.54
2018-09-26T06:49:36.835Z,69.44
2018-09-26T06:50:17.417Z,69.15
2018-09-26T06:50:57.976Z,69.44
2018-09-26T06:51:38.619Z,68.96
2018-09-26T06:52:19.209Z,68.77
2018-09-26T06:52:59.800Z,69.06
2018-09-26T06:53:40.433Z,68.84
2018-09-26T06:54:21.032Z,69.12
2018-09-26T06:55:01.660Z,69.06
2018-09-26T06:55:42.234Z,69.06
2018-09-26T06:56:22.853Z,69.35
2018-09-26T06:57:03.396Z,69.15
2018-09-26T06:57:44.050Z,69.54
2018-09-26T06:58:24.674Z,69.5
2018-09-26T06:59:05.499Z,69.5
2018-09-26T06:59:46.139Z,69.44
2018-09-26T07:00:26.763Z,69.69
2018-09-26T07:01:07.340Z,70.1
2018-09-26T07:01:47.942Z,70.2
2018-09-26T07:02:28.548Z,70.01
2018-09-26T07:03:09.132Z,70.1
2018-09-26T07:03:49.723Z,70.01
2018-09-26T07:04:30.302Z,69.92
2018-09-26T07:05:10.906Z,69.73
2018-09-26T07:05:51.456Z,69.92
2018-09-26T07:06:32.211Z,69.82
2018-09-26T07:07:12.806Z,69.82
2018-09-26T07:07:53.428Z,70.1
2018-09-26T07:08:34.015Z,69.92
2018-09-26T07:09:14.605Z,69.15
2018-09-26T07:09:55.232Z,70.1
2018-09-26T07:10:35.815Z,69.35
2018-09-26T07:11:16.379Z,69.73
2018-09-26T07:11:56.979Z,69.44
2018-09-26T07:12:37.602Z,69.44
2018-09-26T07:13:18.156Z,69.44
2018-09-26T07:13:58.788Z,69.25
2018-09-26T07:14:39.352Z,69.63
2018-09-26T07:15:20.047Z,69.44
2018-09-26T07:16:00.543Z,69.35
2018-09-26T07:16:41.105Z,69.54
2018-09-26T07:17:21.668Z,69.44
2018-09-26T07:18:02.246Z,69.44
2018-09-26T07:18:42.888Z,69.54
2018-09-26T07:19:23.468Z,69.44
2018-09-26T07:20:04.093Z,69.95
2018-09-26T07:20:44.657Z,69.1
2018-09-26T07:21:25.263Z,69.1
2018-09-26T07:22:05.862Z,69.48
2018-09-26T07:22:46.443Z,69.48
2018-09-26T07:23:26.999Z,69.19
2018-09-26T07:24:07.678Z,68.84
2018-09-26T07:24:48.152Z,67.41
2018-09-26T07:25:28.734Z,66.94
2018-09-26T07:26:09.282Z,66.46
2018-09-26T07:26:49.870Z,66.27
2018-09-26T07:27:30.508Z,65.92
2018-09-26T07:28:11.128Z,65.36
2018-09-26T07:28:51.724Z,65.07
2018-09-26T07:29:32.329Z,64.4
2018-09-26T07:30:12.920Z,64.69
2018-09-26T07:30:53.498Z,64.15
2018-09-26T07:31:34.143Z,63.83
2018-09-26T07:32:14.707Z,63.76
2018-09-26T07:32:55.238Z,62.91
2018-09-26T07:33:35.839Z,62.34
2018-09-26T07:34:16.484Z,62.24
2018-09-26T07:34:57.059Z,62.24
2018-09-26T07:35:37.652Z,62.72
2018-09-26T07:36:18.258Z,62.91
2018-09-26T07:36:58.847Z,62.24
2018-09-26T07:37:39.414Z,63.48
2018-09-26T07:38:20.000Z,63.39
2018-09-26T07:39:00.549Z,62.91
2018-09-26T07:39:41.117Z,63
2018-09-26T07:40:21.683Z,63.29
2018-09-26T07:41:02.268Z,62.52
2018-09-26T07:41:42.834Z,62.34
2018-09-26T07:42:23.452Z,62.81
2018-09-26T07:43:04.001Z,62.81
2018-09-26T07:43:44.576Z,63.2
2018-09-26T07:44:25.142Z,63
2018-09-26T07:45:05.706Z,62.56
2018-09-26T07:45:46.335Z,62.37
2018-09-26T07:46:26.855Z,61.35
2018-09-26T07:47:07.422Z,60.3
2018-09-26T07:47:47.970Z,60.49
2018-09-26T07:48:28.544Z,59.56
2018-09-26T07:49:09.110Z,57.56
2018-09-26T07:49:49.685Z,56.6
2018-09-26T07:50:30.274Z,55.96
2018-09-26T07:51:10.856Z,55.77
2018-09-26T07:51:51.471Z,55.58
2018-09-26T07:52:32.080Z,55.49
2018-09-26T07:53:12.778Z,55.65
2018-09-26T07:53:53.319Z,55.75
2018-09-26T07:54:33.920Z,56.13
2018-09-26T07:55:14.488Z,56.51
2018-09-26T07:55:55.099Z,56.8
2018-09-26T07:56:35.725Z,57.09
2018-09-26T07:57:16.352Z,57.46
2018-09-26T07:57:56.925Z,57.18
2018-09-26T07:58:37.525Z,56.51
2018-09-26T07:59:18.137Z,56.16
2018-09-26T07:59:58.724Z,55.68
2018-09-26T08:00:39.263Z,55.77
2018-09-26T08:01:19.830Z,55.3
2018-09-26T08:02:00.466Z,54.72
2018-09-26T08:02:41.064Z,54.53
2018-09-26T08:03:21.634Z,54.15
2018-09-26T08:04:02.370Z,53.96
2018-09-26T08:04:42.959Z,54.25
2018-09-26T08:05:23.534Z,55.68
2018-09-26T08:06:04.285Z,55.58
2018-09-26T08:06:44.856Z,54.06
2018-09-26T08:07:25.417Z,53.77
2018-09-26T08:08:06.017Z,53.49
2018-09-26T08:08:46.594Z,52.43
2018-09-26T08:09:27.257Z,52.15
2018-09-26T08:10:07.835Z,51.95
2018-09-26T08:10:48.413Z,51.95
2018-09-26T08:11:30.419Z,52.24
2018-09-26T08:12:11.485Z,52.69
2018-09-26T08:12:54.675Z,52.59
2018-09-26T08:13:34.268Z,52.98
2018-09-26T08:14:15.463Z,53.55
2018-09-26T08:14:56.040Z,53.17
2018-09-26T08:15:36.637Z,53.17
2018-09-26T08:16:19.160Z,53.17
2018-09-26T08:16:59.286Z,53.74
2018-09-26T08:17:40.159Z,53.84
2018-09-26T08:18:21.089Z,53.45
2018-09-26T08:19:01.796Z,53.93
2018-09-26T08:19:42.783Z,53.55
2018-09-26T08:20:23.383Z,53.27
2018-09-26T08:21:03.990Z,53.27
2018-09-26T08:21:44.734Z,53.17
2018-09-26T08:22:25.337Z,53.36
2018-09-26T08:23:06.244Z,53.36
2018-09-26T08:23:46.862Z,52.98
2018-09-26T08:24:27.411Z,53.45
2018-09-26T08:25:07.985Z,53.08
2018-09-26T08:25:48.559Z,53.55
2018-09-26T08:26:29.156Z,53.27
2018-09-26T08:27:09.763Z,53.39
2018-09-26T08:27:50.627Z,52.91
2018-09-26T08:28:31.192Z,52.34
2018-09-26T08:29:11.749Z,52.15
2018-09-26T08:29:52.368Z,51.09
2018-09-26T08:30:32.933Z,51.09
2018-09-26T08:31:13.591Z,51.67
2018-09-26T08:31:54.169Z,51.09
2018-09-26T08:32:34.795Z,51.38
2018-09-26T08:33:15.400Z,51.86
2018-09-26T08:33:55.970Z,51.95
2018-09-26T08:34:36.548Z,51.95
2018-09-26T08:35:17.266Z,51.95
2018-09-26T08:35:57.823Z,51.29
2018-09-26T08:36:38.433Z,51
2018-09-26T08:37:18.990Z,50.93
2018-09-26T08:37:59.544Z,52.46
2018-09-26T08:38:41.757Z,52.26
2018-09-26T08:39:22.335Z,50.16
2018-09-26T08:40:02.918Z,50.16
2018-09-26T08:40:43.505Z,49.78
2018-09-26T08:41:24.174Z,50.07
2018-09-26T08:42:04.736Z,50.09
2018-09-26T08:42:45.306Z,49.14
2018-09-26T08:43:25.862Z,48.75
2018-09-26T08:44:06.442Z,49.04
2018-09-26T08:44:47.031Z,49.14
2018-09-26T08:45:27.644Z,48.85
2018-09-26T08:46:08.219Z,49.14
2018-09-26T08:46:48.786Z,48.57